sensor_id;sensor_type;location;lat;lon;timestamp;pressure;altitude;pressure_sealevel;temperature;humidity
6038;BME280;3047;42.600;23.470;2023-05-22T00:00:09;92850.75;;;14.82;100.00
6038;BME280;3047;42.600;23.470;2023-05-22T00:02:38;92843.56;;;14.73;100.00
6038;BME280;3047;42.600;23.470;2023-05-22T00:05:07;92847.84;;;14.73;100.00
6038;BME280;3047;42.600;23.470;2023-05-22T00:07:35;92845.84;;;14.79;100.00
6038;BME280;3047;42.600;23.470;2023-05-22T00:10:02;92826.59;;;14.74;100.00
6038;BME280;3047;42.600;23.470;2023-05-22T00:12:29;92846.81;;;14.77;100.00
6038;BME280;3047;42.600;23.470;2023-05-22T00:14:55;92841.34;;;14.67;100.00
6038;BME280;3047;42.600;23.470;2023-05-22T00:17:22;92844.94;;;14.63;100.00
6038;BME280;3047;42.600;23.470;2023-05-22T00:19:50;92837.22;;;14.65;100.00
6038;BME280;3047;42.600;23.470;2023-05-22T00:22:18;92837.00;;;14.69;100.00
6038;BME280;3047;42.600;23.470;2023-05-22T00:24:45;92814.94;;;14.52;100.00
6038;BME280;3047;42.600;23.470;2023-05-22T00:27:12;92837.53;;;14.76;100.00
6038;BME280;3047;42.600;23.470;2023-05-22T00:29:38;92834.59;;;14.66;100.00
6038;BME280;3047;42.600;23.470;2023-05-22T00:32:05;92828.78;;;14.64;100.00
6038;BME280;3047;42.600;23.470;2023-05-22T00:34:32;92838.25;;;14.61;100.00
6038;BME280;3047;42.600;23.470;2023-05-22T00:37:00;92828.19;;;14.59;100.00
6038;BME280;3047;42.600;23.470;2023-05-22T00:39:27;92832.38;;;14.60;100.00
6038;BME280;3047;42.600;23.470;2023-05-22T00:41:54;92832.44;;;14.58;100.00
6038;BME280;3047;42.600;23.470;2023-05-22T00:44:20;92838.34;;;14.59;100.00
6038;BME280;3047;42.600;23.470;2023-05-22T00:46:48;92832.59;;;14.55;100.00
6038;BME280;3047;42.600;23.470;2023-05-22T00:49:14;92827.56;;;14.54;100.00
6038;BME280;3047;42.600;23.470;2023-05-22T00:51:41;92824.44;;;14.66;100.00
6038;BME280;3047;42.600;23.470;2023-05-22T00:54:10;92830.09;;;14.54;100.00
6038;BME280;3047;42.600;23.470;2023-05-22T00:56:37;92828.19;;;14.40;100.00
6038;BME280;3047;42.600;23.470;2023-05-22T00:59:04;92822.38;;;14.38;100.00
6038;BME280;3047;42.600;23.470;2023-05-22T01:01:31;92828.66;;;14.48;100.00
6038;BME280;3047;42.600;23.470;2023-05-22T01:04:01;92829.56;;;14.47;100.00
6038;BME280;3047;42.600;23.470;2023-05-22T01:06:32;92835.41;;;14.49;100.00
6038;BME280;3047;42.600;23.470;2023-05-22T01:08:59;92830.47;;;14.46;100.00
6038;BME280;3047;42.600;23.470;2023-05-22T01:11:37;92838.72;;;14.32;100.00
6038;BME280;3047;42.600;23.470;2023-05-22T01:14:19;92783.38;;;14.03;100.00
6038;BME280;3047;42.600;23.470;2023-05-22T01:16:52;92826.09;;;14.31;100.00
6038;BME280;3047;42.600;23.470;2023-05-22T01:19:37;92796.00;;;14.22;100.00
6038;BME280;3047;42.600;23.470;2023-05-22T01:22:33;92828.06;;;14.43;100.00
6038;BME280;3047;42.600;23.470;2023-05-22T01:25:22;92833.75;;;14.29;100.00
6038;BME280;3047;42.600;23.470;2023-05-22T01:28:13;92827.38;;;14.40;100.00
6038;BME280;3047;42.600;23.470;2023-05-22T01:30:58;92822.88;;;14.45;100.00
6038;BME280;3047;42.600;23.470;2023-05-22T01:33:30;92827.00;;;14.47;100.00
6038;BME280;3047;42.600;23.470;2023-05-22T01:36:00;92824.41;;;14.49;100.00
6038;BME280;3047;42.600;23.470;2023-05-22T01:38:27;92821.13;;;14.47;100.00
6038;BME280;3047;42.600;23.470;2023-05-22T01:40:56;92820.22;;;14.48;100.00
6038;BME280;3047;42.600;23.470;2023-05-22T01:43:23;92818.38;;;14.32;100.00
6038;BME280;3047;42.600;23.470;2023-05-22T01:45:50;92814.13;;;14.33;100.00
6038;BME280;3047;42.600;23.470;2023-05-22T01:48:18;92813.91;;;14.38;100.00
6038;BME280;3047;42.600;23.470;2023-05-22T01:50:47;92808.81;;;14.38;100.00
6038;BME280;3047;42.600;23.470;2023-05-22T01:53:23;92811.44;;;14.36;100.00
6038;BME280;3047;42.600;23.470;2023-05-22T01:55:56;92813.22;;;14.34;100.00
6038;BME280;3047;42.600;23.470;2023-05-22T01:58:36;92815.41;;;14.05;100.00
6038;BME280;3047;42.600;23.470;2023-05-22T02:01:05;92816.91;;;14.09;100.00
6038;BME280;3047;42.600;23.470;2023-05-22T02:03:36;92816.72;;;14.14;100.00
6038;BME280;3047;42.600;23.470;2023-05-22T02:06:07;92814.22;;;14.13;100.00
6038;BME280;3047;42.600;23.470;2023-05-22T02:08:35;92810.06;;;14.12;100.00
6038;BME280;3047;42.600;23.470;2023-05-22T02:11:04;92818.16;;;14.01;100.00
6038;BME280;3047;42.600;23.470;2023-05-22T02:13:32;92817.56;;;13.96;100.00
6038;BME280;3047;42.600;23.470;2023-05-22T02:16:00;92808.50;;;13.90;100.00
6038;BME280;3047;42.600;23.470;2023-05-22T02:18:28;92811.59;;;13.78;100.00
6038;BME280;3047;42.600;23.470;2023-05-22T02:20:56;92804.72;;;13.80;100.00
6038;BME280;3047;42.600;23.470;2023-05-22T02:23:23;92805.97;;;13.71;100.00
6038;BME280;3047;42.600;23.470;2023-05-22T02:25:50;92807.97;;;13.83;100.00
6038;BME280;3047;42.600;23.470;2023-05-22T02:28:17;92825.72;;;13.83;100.00
6038;BME280;3047;42.600;23.470;2023-05-22T02:30:44;92813.97;;;13.81;100.00
6038;BME280;3047;42.600;23.470;2023-05-22T02:33:10;92812.34;;;13.80;100.00
6038;BME280;3047;42.600;23.470;2023-05-22T02:35:37;92819.34;;;13.75;100.00
6038;BME280;3047;42.600;23.470;2023-05-22T02:38:05;92824.13;;;13.81;100.00
6038;BME280;3047;42.600;23.470;2023-05-22T02:40:32;92815.56;;;13.65;100.00
6038;BME280;3047;42.600;23.470;2023-05-22T02:42:58;92815.97;;;13.55;100.00
6038;BME280;3047;42.600;23.470;2023-05-22T02:45:25;92819.94;;;13.42;100.00
6038;BME280;3047;42.600;23.470;2023-05-22T02:47:52;92813.56;;;13.52;100.00
6038;BME280;3047;42.600;23.470;2023-05-22T02:50:18;92820.50;;;13.49;100.00
6038;BME280;3047;42.600;23.470;2023-05-22T02:52:45;92817.28;;;13.45;100.00
6038;BME280;3047;42.600;23.470;2023-05-22T02:55:15;92811.38;;;13.45;100.00
6038;BME280;3047;42.600;23.470;2023-05-22T02:57:41;92791.97;;;13.25;100.00
6038;BME280;3047;42.600;23.470;2023-05-22T03:00:09;92812.19;;;13.26;100.00
6038;BME280;3047;42.600;23.470;2023-05-22T03:02:36;92808.50;;;13.13;100.00
6038;BME280;3047;42.600;23.470;2023-05-22T03:05:03;92812.22;;;13.04;100.00
6038;BME280;3047;42.600;23.470;2023-05-22T03:07:30;92806.78;;;13.14;100.00
6038;BME280;3047;42.600;23.470;2023-05-22T03:09:57;92814.63;;;13.28;100.00
6038;BME280;3047;42.600;23.470;2023-05-22T03:12:25;92794.09;;;13.14;100.00
6038;BME280;3047;42.600;23.470;2023-05-22T03:14:51;92810.53;;;13.25;100.00
6038;BME280;3047;42.600;23.470;2023-05-22T03:17:18;92819.66;;;13.29;100.00
6038;BME280;3047;42.600;23.470;2023-05-22T03:19:45;92809.66;;;13.26;100.00
6038;BME280;3047;42.600;23.470;2023-05-22T03:22:11;92820.09;;;13.19;100.00
6038;BME280;3047;42.600;23.470;2023-05-22T03:24:38;92807.84;;;13.08;100.00
6038;BME280;3047;42.600;23.470;2023-05-22T03:27:05;92815.59;;;13.05;100.00
6038;BME280;3047;42.600;23.470;2023-05-22T03:29:33;92819.97;;;13.22;100.00
6038;BME280;3047;42.600;23.470;2023-05-22T03:32:00;92816.16;;;13.32;100.00
6038;BME280;3047;42.600;23.470;2023-05-22T03:34:27;92818.66;;;13.33;100.00
6038;BME280;3047;42.600;23.470;2023-05-22T03:36:56;92817.66;;;13.36;100.00
6038;BME280;3047;42.600;23.470;2023-05-22T03:39:23;92776.00;;;13.02;100.00
6038;BME280;3047;42.600;23.470;2023-05-22T03:41:49;92817.47;;;13.20;100.00
6038;BME280;3047;42.600;23.470;2023-05-22T03:44:16;92819.50;;;13.32;100.00
6038;BME280;3047;42.600;23.470;2023-05-22T03:46:45;92822.41;;;13.44;100.00
6038;BME280;3047;42.600;23.470;2023-05-22T03:49:11;92821.13;;;13.54;100.00
6038;BME280;3047;42.600;23.470;2023-05-22T03:51:38;92822.09;;;13.51;100.00
6038;BME280;3047;42.600;23.470;2023-05-22T03:54:05;92812.50;;;13.58;100.00
6038;BME280;3047;42.600;23.470;2023-05-22T03:56:31;92820.50;;;13.49;100.00
6038;BME280;3047;42.600;23.470;2023-05-22T03:58:58;92829.50;;;13.56;100.00
6038;BME280;3047;42.600;23.470;2023-05-22T04:01:25;92815.78;;;13.41;100.00
6038;BME280;3047;42.600;23.470;2023-05-22T04:03:53;92830.59;;;13.50;100.00
6038;BME280;3047;42.600;23.470;2023-05-22T04:06:20;92825.03;;;13.61;100.00
6038;BME280;3047;42.600;23.470;2023-05-22T04:08:47;92819.69;;;13.67;100.00
6038;BME280;3047;42.600;23.470;2023-05-22T04:11:14;92825.38;;;13.72;100.00
6038;BME280;3047;42.600;23.470;2023-05-22T04:13:41;92829.03;;;13.85;100.00
6038;BME280;3047;42.600;23.470;2023-05-22T04:16:08;92828.41;;;13.99;100.00
6038;BME280;3047;42.600;23.470;2023-05-22T04:18:34;92827.00;;;14.11;100.00
6038;BME280;3047;42.600;23.470;2023-05-22T04:21:03;92825.84;;;14.18;100.00
6038;BME280;3047;42.600;23.470;2023-05-22T04:23:32;92837.63;;;14.38;100.00
6038;BME280;3047;42.600;23.470;2023-05-22T04:25:58;92839.63;;;14.50;100.00
6038;BME280;3047;42.600;23.470;2023-05-22T04:28:26;92842.16;;;14.68;100.00
6038;BME280;3047;42.600;23.470;2023-05-22T04:30:54;92846.72;;;14.78;100.00
6038;BME280;3047;42.600;23.470;2023-05-22T04:33:21;92851.16;;;14.92;100.00
6038;BME280;3047;42.600;23.470;2023-05-22T04:35:49;92847.53;;;15.14;99.51
6038;BME280;3047;42.600;23.470;2023-05-22T04:38:17;92796.63;;;14.80;100.00
6038;BME280;3047;42.600;23.470;2023-05-22T04:40:43;92821.81;;;15.02;100.00
6038;BME280;3047;42.600;23.470;2023-05-22T04:43:10;92849.56;;;15.24;100.00
6038;BME280;3047;42.600;23.470;2023-05-22T04:45:38;92853.78;;;15.41;100.00
6038;BME280;3047;42.600;23.470;2023-05-22T04:48:06;92796.50;;;15.17;100.00
6038;BME280;3047;42.600;23.470;2023-05-22T04:50:33;92851.66;;;15.67;98.87
6038;BME280;3047;42.600;23.470;2023-05-22T04:53:00;92848.81;;;15.73;97.24
6038;BME280;3047;42.600;23.470;2023-05-22T04:55:30;92850.56;;;15.88;93.14
6038;BME280;3047;42.600;23.470;2023-05-22T04:57:58;92854.34;;;15.97;96.84
6038;BME280;3047;42.600;23.470;2023-05-22T05:00:25;92855.44;;;16.09;96.40
6038;BME280;3047;42.600;23.470;2023-05-22T05:02:53;92848.91;;;16.19;97.79
6038;BME280;3047;42.600;23.470;2023-05-22T05:05:19;92856.25;;;16.25;94.30
6038;BME280;3047;42.600;23.470;2023-05-22T05:07:47;92857.88;;;16.26;92.55
6038;BME280;3047;42.600;23.470;2023-05-22T05:10:14;92850.91;;;16.29;92.92
6038;BME280;3047;42.600;23.470;2023-05-22T05:12:42;92864.44;;;16.46;92.92
6038;BME280;3047;42.600;23.470;2023-05-22T05:15:09;92859.59;;;16.57;91.36
6038;BME280;3047;42.600;23.470;2023-05-22T05:17:36;92865.53;;;16.73;88.44
6038;BME280;3047;42.600;23.470;2023-05-22T05:20:04;92836.78;;;16.70;92.46
6038;BME280;3047;42.600;23.470;2023-05-22T05:22:31;92834.56;;;16.79;89.19
6038;BME280;3047;42.600;23.470;2023-05-22T05:24:58;92865.34;;;17.07;87.04
6038;BME280;3047;42.600;23.470;2023-05-22T05:27:25;92867.59;;;17.27;84.36
6038;BME280;3047;42.600;23.470;2023-05-22T05:29:53;92863.66;;;17.36;86.75
6038;BME280;3047;42.600;23.470;2023-05-22T05:32:20;92858.94;;;17.44;86.46
6038;BME280;3047;42.600;23.470;2023-05-22T05:34:47;92862.41;;;17.57;85.45
6038;BME280;3047;42.600;23.470;2023-05-22T05:37:14;92870.38;;;17.67;82.33
6038;BME280;3047;42.600;23.470;2023-05-22T05:39:41;92867.72;;;17.68;85.24
6038;BME280;3047;42.600;23.470;2023-05-22T05:42:08;92867.06;;;17.65;85.22
6038;BME280;3047;42.600;23.470;2023-05-22T05:44:34;92871.91;;;17.69;83.12
6038;BME280;3047;42.600;23.470;2023-05-22T05:47:03;92879.38;;;17.72;79.78
6038;BME280;3047;42.600;23.470;2023-05-22T05:49:29;92861.88;;;17.66;82.30
6038;BME280;3047;42.600;23.470;2023-05-22T05:51:56;92867.41;;;17.74;85.52
6038;BME280;3047;42.600;23.470;2023-05-22T05:54:23;92871.09;;;17.69;83.22
6038;BME280;3047;42.600;23.470;2023-05-22T05:56:51;92880.38;;;17.70;83.24
6038;BME280;3047;42.600;23.470;2023-05-22T05:59:18;92879.03;;;17.64;84.57
6038;BME280;3047;42.600;23.470;2023-05-22T06:01:45;92869.56;;;17.66;85.62
6038;BME280;3047;42.600;23.470;2023-05-22T06:04:13;92875.19;;;17.71;84.89
6038;BME280;3047;42.600;23.470;2023-05-22T06:06:40;92865.91;;;17.70;85.38
6038;BME280;3047;42.600;23.470;2023-05-22T06:09:08;92874.22;;;17.88;81.86
6038;BME280;3047;42.600;23.470;2023-05-22T06:11:35;92883.19;;;17.95;78.57
6038;BME280;3047;42.600;23.470;2023-05-22T06:14:04;92873.22;;;17.91;81.18
6038;BME280;3047;42.600;23.470;2023-05-22T06:16:31;92878.31;;;18.05;81.51
6038;BME280;3047;42.600;23.470;2023-05-22T06:18:58;92875.00;;;18.17;79.79
6038;BME280;3047;42.600;23.470;2023-05-22T06:21:26;92885.88;;;18.21;77.91
6038;BME280;3047;42.600;23.470;2023-05-22T06:23:53;92874.72;;;18.22;79.05
6038;BME280;3047;42.600;23.470;2023-05-22T06:26:20;92873.00;;;18.22;77.74
6038;BME280;3047;42.600;23.470;2023-05-22T06:28:47;92883.22;;;18.22;76.83
6038;BME280;3047;42.600;23.470;2023-05-22T06:31:16;92882.31;;;18.09;75.16
6038;BME280;3047;42.600;23.470;2023-05-22T06:33:42;92879.06;;;18.07;76.59
6038;BME280;3047;42.600;23.470;2023-05-22T06:36:09;92881.16;;;18.00;78.39
6038;BME280;3047;42.600;23.470;2023-05-22T06:38:38;92874.88;;;17.92;80.65
6038;BME280;3047;42.600;23.470;2023-05-22T06:41:05;92881.72;;;17.91;79.27
6038;BME280;3047;42.600;23.470;2023-05-22T06:43:32;92884.34;;;17.90;76.90
6038;BME280;3047;42.600;23.470;2023-05-22T06:45:59;92884.28;;;17.91;79.91
6038;BME280;3047;42.600;23.470;2023-05-22T06:48:25;92885.72;;;17.95;81.60
6038;BME280;3047;42.600;23.470;2023-05-22T06:50:52;92881.50;;;17.94;83.45
6038;BME280;3047;42.600;23.470;2023-05-22T06:53:19;92882.25;;;17.96;81.21
6038;BME280;3047;42.600;23.470;2023-05-22T06:55:47;92884.00;;;17.96;82.76
6038;BME280;3047;42.600;23.470;2023-05-22T06:58:15;92881.50;;;17.94;78.98
6038;BME280;3047;42.600;23.470;2023-05-22T07:00:41;92878.41;;;18.03;79.25
6038;BME280;3047;42.600;23.470;2023-05-22T07:03:08;92874.56;;;18.11;82.98
6038;BME280;3047;42.600;23.470;2023-05-22T07:05:36;92870.16;;;18.27;83.09
6038;BME280;3047;42.600;23.470;2023-05-22T07:08:03;92827.66;;;18.12;80.99
6038;BME280;3047;42.600;23.470;2023-05-22T07:10:30;92852.81;;;18.32;80.80
6038;BME280;3047;42.600;23.470;2023-05-22T07:12:58;92869.25;;;18.55;81.97
6038;BME280;3047;42.600;23.470;2023-05-22T07:15:25;92856.47;;;18.55;82.53
6038;BME280;3047;42.600;23.470;2023-05-22T07:17:51;92870.72;;;18.73;81.33
6038;BME280;3047;42.600;23.470;2023-05-22T07:20:18;92877.28;;;18.77;80.09
6038;BME280;3047;42.600;23.470;2023-05-22T07:22:45;92869.19;;;18.84;83.38
6038;BME280;3047;42.600;23.470;2023-05-22T07:25:12;92872.31;;;19.01;80.89
6038;BME280;3047;42.600;23.470;2023-05-22T07:27:38;92876.22;;;19.07;84.08
6038;BME280;3047;42.600;23.470;2023-05-22T07:30:07;92875.09;;;19.11;84.04
6038;BME280;3047;42.600;23.470;2023-05-22T07:32:34;92876.97;;;19.22;77.03
6038;BME280;3047;42.600;23.470;2023-05-22T07:35:01;92882.53;;;19.29;73.94
6038;BME280;3047;42.600;23.470;2023-05-22T07:37:28;92881.31;;;19.34;75.65
6038;BME280;3047;42.600;23.470;2023-05-22T07:39:55;92880.59;;;19.45;74.57
6038;BME280;3047;42.600;23.470;2023-05-22T07:42:22;92879.25;;;19.52;72.26
6038;BME280;3047;42.600;23.470;2023-05-22T07:44:50;92866.75;;;19.60;74.21
6038;BME280;3047;42.600;23.470;2023-05-22T07:47:18;92869.66;;;19.68;69.28
6038;BME280;3047;42.600;23.470;2023-05-22T07:49:45;92868.53;;;19.72;68.19
6038;BME280;3047;42.600;23.470;2023-05-22T07:52:11;92869.97;;;19.76;66.94
6038;BME280;3047;42.600;23.470;2023-05-22T07:54:38;92859.72;;;19.89;70.37
6038;BME280;3047;42.600;23.470;2023-05-22T07:57:05;92854.59;;;20.02;72.18
6038;BME280;3047;42.600;23.470;2023-05-22T07:59:32;92852.59;;;20.18;72.55
6038;BME280;3047;42.600;23.470;2023-05-22T08:02:00;92852.03;;;20.39;71.86
6038;BME280;3047;42.600;23.470;2023-05-22T08:04:29;92850.88;;;20.56;70.34
6038;BME280;3047;42.600;23.470;2023-05-22T08:06:55;92810.53;;;20.45;66.25
6038;BME280;3047;42.600;23.470;2023-05-22T08:09:22;92860.59;;;20.87;66.38
6038;BME280;3047;42.600;23.470;2023-05-22T08:11:49;92862.63;;;21.06;66.02
6038;BME280;3047;42.600;23.470;2023-05-22T08:16:42;92863.53;;;20.94;64.00
6038;BME280;3047;42.600;23.470;2023-05-22T08:19:09;92866.00;;;20.95;67.01
6038;BME280;3047;42.600;23.470;2023-05-22T08:21:37;92861.81;;;20.94;66.73
6038;BME280;3047;42.600;23.470;2023-05-22T08:24:05;92857.25;;;20.98;67.06
6038;BME280;3047;42.600;23.470;2023-05-22T08:26:31;92863.50;;;21.18;70.08
6038;BME280;3047;42.600;23.470;2023-05-22T08:28:58;92852.94;;;21.34;69.66
6038;BME280;3047;42.600;23.470;2023-05-22T08:31:25;92864.31;;;21.54;60.69
6038;BME280;3047;42.600;23.470;2023-05-22T08:33:53;92865.38;;;21.51;61.02
6038;BME280;3047;42.600;23.470;2023-05-22T08:36:26;92863.38;;;21.55;60.46
6038;BME280;3047;42.600;23.470;2023-05-22T08:38:55;92863.66;;;21.74;62.34
6038;BME280;3047;42.600;23.470;2023-05-22T08:41:22;92861.78;;;21.87;66.03
6038;BME280;3047;42.600;23.470;2023-05-22T08:43:49;92860.75;;;22.12;64.25
6038;BME280;3047;42.600;23.470;2023-05-22T08:46:16;92857.28;;;22.25;63.43
6038;BME280;3047;42.600;23.470;2023-05-22T08:48:44;92860.53;;;22.27;63.18
6038;BME280;3047;42.600;23.470;2023-05-22T08:51:12;92852.59;;;22.18;60.59
6038;BME280;3047;42.600;23.470;2023-05-22T08:53:41;92866.84;;;22.34;58.48
6038;BME280;3047;42.600;23.470;2023-05-22T08:56:11;92847.91;;;22.35;56.70
6038;BME280;3047;42.600;23.470;2023-05-22T08:58:38;92832.34;;;22.36;56.55
6038;BME280;3047;42.600;23.470;2023-05-22T09:01:05;92857.09;;;22.60;58.91
6038;BME280;3047;42.600;23.470;2023-05-22T09:03:32;92858.25;;;22.56;53.34
6038;BME280;3047;42.600;23.470;2023-05-22T09:06:00;92857.59;;;22.42;55.58
6038;BME280;3047;42.600;23.470;2023-05-22T09:08:27;92858.56;;;22.30;56.95
6038;BME280;3047;42.600;23.470;2023-05-22T09:10:54;92856.78;;;22.19;57.48
6038;BME280;3047;42.600;23.470;2023-05-22T09:13:26;92851.88;;;22.05;58.50
6038;BME280;3047;42.600;23.470;2023-05-22T09:15:57;92855.13;;;22.07;58.47
6038;BME280;3047;42.600;23.470;2023-05-22T09:18:26;92852.72;;;22.17;55.22
6038;BME280;3047;42.600;23.470;2023-05-22T09:20:56;92849.63;;;22.12;54.33
6038;BME280;3047;42.600;23.470;2023-05-22T09:23:23;92850.72;;;22.09;54.42
6038;BME280;3047;42.600;23.470;2023-05-22T09:25:53;92846.63;;;21.84;53.90
6038;BME280;3047;42.600;23.470;2023-05-22T09:28:20;92863.66;;;21.74;52.96
6038;BME280;3047;42.600;23.470;2023-05-22T09:30:48;92831.50;;;21.46;55.07
6038;BME280;3047;42.600;23.470;2023-05-22T09:33:15;92858.25;;;21.43;55.78
6038;BME280;3047;42.600;23.470;2023-05-22T09:35:42;92854.81;;;21.32;57.59
6038;BME280;3047;42.600;23.470;2023-05-22T09:38:12;92866.75;;;21.09;57.09
6038;BME280;3047;42.600;23.470;2023-05-22T09:40:40;92865.44;;;21.03;57.54
6038;BME280;3047;42.600;23.470;2023-05-22T09:43:07;92861.91;;;20.93;61.51
6038;BME280;3047;42.600;23.470;2023-05-22T09:45:34;92844.94;;;20.79;58.10
6038;BME280;3047;42.600;23.470;2023-05-22T09:48:04;92862.56;;;20.84;58.10
6038;BME280;3047;42.600;23.470;2023-05-22T09:50:31;92821.16;;;20.64;57.26
6038;BME280;3047;42.600;23.470;2023-05-22T09:53:00;92865.06;;;20.96;60.39
6038;BME280;3047;42.600;23.470;2023-05-22T09:55:27;92861.72;;;21.07;58.17
6038;BME280;3047;42.600;23.470;2023-05-22T09:57:55;92861.81;;;21.06;58.43
6038;BME280;3047;42.600;23.470;2023-05-22T10:00:23;92860.06;;;21.06;58.62
6038;BME280;3047;42.600;23.470;2023-05-22T10:02:53;92852.63;;;21.14;58.23
6038;BME280;3047;42.600;23.470;2023-05-22T10:05:29;92849.22;;;21.38;62.17
6038;BME280;3047;42.600;23.470;2023-05-22T10:08:01;92814.94;;;21.26;58.06
6038;BME280;3047;42.600;23.470;2023-05-22T10:10:30;92845.16;;;21.35;56.99
6038;BME280;3047;42.600;23.470;2023-05-22T10:13:00;92847.81;;;21.34;57.40
6038;BME280;3047;42.600;23.470;2023-05-22T10:15:29;92844.31;;;21.35;59.06
6038;BME280;3047;42.600;23.470;2023-05-22T10:17:57;92838.59;;;21.42;60.35
6038;BME280;3047;42.600;23.470;2023-05-22T10:20:25;92835.00;;;21.45;58.55
6038;BME280;3047;42.600;23.470;2023-05-22T10:22:54;92853.81;;;21.57;60.22
6038;BME280;3047;42.600;23.470;2023-05-22T10:25:21;92836.63;;;21.46;68.19
6038;BME280;3047;42.600;23.470;2023-05-22T10:27:48;92845.03;;;21.37;68.33
6038;BME280;3047;42.600;23.470;2023-05-22T10:30:25;92860.84;;;21.19;68.28
6038;BME280;3047;42.600;23.470;2023-05-22T10:32:56;92862.06;;;21.03;71.93
6038;BME280;3047;42.600;23.470;2023-05-22T10:35:28;92859.53;;;20.90;68.63
6038;BME280;3047;42.600;23.470;2023-05-22T10:38:06;92849.41;;;20.64;69.88
6038;BME280;3047;42.600;23.470;2023-05-22T10:40:38;92860.00;;;20.60;70.87
6038;BME280;3047;42.600;23.470;2023-05-22T10:43:06;92854.25;;;20.56;73.43
6038;BME280;3047;42.600;23.470;2023-05-22T10:45:33;92850.88;;;20.56;70.63
6038;BME280;3047;42.600;23.470;2023-05-22T10:48:02;92848.72;;;20.49;71.84
6038;BME280;3047;42.600;23.470;2023-05-22T10:50:29;92849.31;;;20.53;71.31
6038;BME280;3047;42.600;23.470;2023-05-22T10:53:19;92836.53;;;20.40;71.74
6038;BME280;3047;42.600;23.470;2023-05-22T10:55:46;92845.34;;;20.36;72.46
6038;BME280;3047;42.600;23.470;2023-05-22T10:58:14;92840.38;;;20.22;72.94
6038;BME280;3047;42.600;23.470;2023-05-22T11:00:41;92846.16;;;20.00;74.06
6038;BME280;3047;42.600;23.470;2023-05-22T11:03:08;92856.75;;;19.83;72.57
6038;BME280;3047;42.600;23.470;2023-05-22T11:05:36;92849.78;;;19.72;73.44
6038;BME280;3047;42.600;23.470;2023-05-22T11:08:37;92859.25;;;19.44;74.69
6038;BME280;3047;42.600;23.470;2023-05-22T11:11:11;92881.31;;;19.34;74.92
6038;BME280;3047;42.600;23.470;2023-05-22T11:13:38;92882.91;;;19.22;70.75
6038;BME280;3047;42.600;23.470;2023-05-22T11:16:07;92882.88;;;18.97;71.21
6038;BME280;3047;42.600;23.470;2023-05-22T11:18:35;92877.47;;;18.74;70.81
6038;BME280;3047;42.600;23.470;2023-05-22T11:21:02;92910.81;;;18.73;72.92
6038;BME280;3047;42.600;23.470;2023-05-22T11:23:33;92911.06;;;18.27;78.52
6038;BME280;3047;42.600;23.470;2023-05-22T11:26:25;92923.97;;;17.97;83.68
6038;BME280;3047;42.600;23.470;2023-05-22T11:28:52;92893.31;;;17.38;85.29
6038;BME280;3047;42.600;23.470;2023-05-22T11:31:19;92904.31;;;17.24;87.77
6038;BME280;3047;42.600;23.470;2023-05-22T11:33:48;92910.75;;;17.16;90.02
6038;BME280;3047;42.600;23.470;2023-05-22T11:36:15;92912.09;;;17.07;93.72
6038;BME280;3047;42.600;23.470;2023-05-22T11:38:42;92912.69;;;16.96;99.35
6038;BME280;3047;42.600;23.470;2023-05-22T11:41:09;92910.25;;;16.95;96.59
6038;BME280;3047;42.600;23.470;2023-05-22T11:43:41;92903.56;;;16.92;100.00
6038;BME280;3047;42.600;23.470;2023-05-22T11:46:09;92894.53;;;16.87;100.00
6038;BME280;3047;42.600;23.470;2023-05-22T11:48:39;92876.03;;;16.67;100.00
6038;BME280;3047;42.600;23.470;2023-05-22T11:51:07;92882.97;;;16.49;100.00
6038;BME280;3047;42.600;23.470;2023-05-22T11:53:34;92869.41;;;16.33;100.00
6038;BME280;3047;42.600;23.470;2023-05-22T11:56:01;92872.50;;;16.22;100.00
6038;BME280;3047;42.600;23.470;2023-05-22T11:58:29;92877.75;;;16.03;100.00
6038;BME280;3047;42.600;23.470;2023-05-22T12:01:03;92882.53;;;15.94;100.00
6038;BME280;3047;42.600;23.470;2023-05-22T12:03:30;92883.66;;;16.04;100.00
6038;BME280;3047;42.600;23.470;2023-05-22T12:05:57;92874.47;;;16.01;100.00
6038;BME280;3047;42.600;23.470;2023-05-22T12:08:24;92890.75;;;15.99;100.00
6038;BME280;3047;42.600;23.470;2023-05-22T12:10:53;92845.06;;;15.80;100.00
6038;BME280;3047;42.600;23.470;2023-05-22T12:13:23;92880.41;;;16.02;100.00
6038;BME280;3047;42.600;23.470;2023-05-22T12:15:52;92882.13;;;16.01;100.00
6038;BME280;3047;42.600;23.470;2023-05-22T12:18:20;92889.19;;;16.12;100.00
6038;BME280;3047;42.600;23.470;2023-05-22T12:20:50;92888.38;;;16.27;100.00
6038;BME280;3047;42.600;23.470;2023-05-22T12:23:25;92876.28;;;16.31;100.00
6038;BME280;3047;42.600;23.470;2023-05-22T12:25:57;92875.16;;;16.37;100.00
6038;BME280;3047;42.600;23.470;2023-05-22T12:28:23;92865.13;;;16.49;100.00
6038;BME280;3047;42.600;23.470;2023-05-22T12:30:51;92845.38;;;16.37;100.00
6038;BME280;3047;42.600;23.470;2023-05-22T12:33:19;92870.41;;;16.61;100.00
6038;BME280;3047;42.600;23.470;2023-05-22T12:35:50;92873.06;;;16.75;100.00
6038;BME280;3047;42.600;23.470;2023-05-22T12:38:19;92867.19;;;16.89;100.00
6038;BME280;3047;42.600;23.470;2023-05-22T12:40:46;92872.63;;;16.98;100.00
6038;BME280;3047;42.600;23.470;2023-05-22T12:43:13;92862.25;;;17.01;99.32
6038;BME280;3047;42.600;23.470;2023-05-22T12:45:40;92875.13;;;17.14;100.00
6038;BME280;3047;42.600;23.470;2023-05-22T12:48:07;92846.56;;;17.08;95.05
6038;BME280;3047;42.600;23.470;2023-05-22T12:50:34;92863.78;;;17.34;96.76
6038;BME280;3047;42.600;23.470;2023-05-22T12:53:02;92836.84;;;17.28;100.00
6038;BME280;3047;42.600;23.470;2023-05-22T12:55:29;92868.44;;;17.56;97.61
6038;BME280;3047;42.600;23.470;2023-05-22T12:57:55;92862.72;;;17.67;100.00
6038;BME280;3047;42.600;23.470;2023-05-22T13:00:22;92862.09;;;17.77;100.00
6038;BME280;3047;42.600;23.470;2023-05-22T13:02:49;92857.91;;;17.91;100.00
6038;BME280;3047;42.600;23.470;2023-05-22T13:05:16;92847.75;;;17.89;100.00
6038;BME280;3047;42.600;23.470;2023-05-22T13:07:42;92864.25;;;18.12;100.00
6038;BME280;3047;42.600;23.470;2023-05-22T13:10:10;92859.09;;;18.26;98.95
6038;BME280;3047;42.600;23.470;2023-05-22T13:12:38;92860.63;;;18.43;97.36